Archdale, North Carolina
Current Conditions -  °F | °C
As of 9:54 PM on Monday 20 Oct 2014 (Local Time) from KGSO Reporting Station
Broken Clouds Broken Clouds  
Wind Chill: 58°   Ceiling: 13000
Heat Index: 58°   Visibility: 10mi
Dew Point: 51°   Wind: 5mph
Humidity: 78%   Direction: 200°SSW
Pressure: 29.98"   Gusts: NA
Location:  35.9136°N, 79.9465°W
Report Text: KGSO 210154Z 20004KT 10SM BKN130 14/11 A2998 RMK AO2 RAE14 SLP149 P0000 T01440106
Loading
Personal Weather Stations






























Interactive Weather Map New forecast layout! Learn more

10-Day Weather Forecast

Advertisements
Track Severe Weather on mobile